Ryer Island, California
Current Conditions -  °F | °C
As of 9:58 AM on Wednesday 28 Jan 2015 (Local Time) from KSUU Reporting Station
Clear Clear  
Wind Chill: 56°   Ceiling: Unl
Heat Index: 56°   Visibility: 10mi
Dew Point: 50°   Wind: 6mph
Humidity: 79%   Direction: 270°W
Pressure: 30.25"   Gusts: NA
Location:  38.2298°N, 121.579°W
Report Text: KSUU 281758Z AUTO 27005KT 10SM CLR 14/10 A3025 RMK AO2 SLP250 T01360101 10136 20053 53001 $
Loading
Personal Weather Stations






























Interactive Weather Map New forecast layout! Learn more

10-Day Weather Forecast

Advertisements
Track Severe Weather on mobile